Time;durP1;ratioP1;P1;durP2;ratioP2;P2;SDS_P1;SDS_P2;PMS_P1;PMS_P2;Temp;Humidity;BMP_temperature;BMP_pressure;BME280_temperature;BME280_humidity;BME280_pressure;Samples;Min_cycle;Max_cycle;Signal;HPM_P1;HPM_P2
2023/06/08 00:01:45;;;;;;;2.20;2.10;;;;;;;23.00;49.94;101796.41;5046986;28;20041;-55
2023/06/08 00:04:12;;;;;;;2.67;1.90;;;;;;;23.00;50.23;101790.97;5046418;28;20083;-55
2023/06/08 00:06:40;;;;;;;3.28;2.28;;;;;;;22.99;50.24;101786.53;5046564;28;20483;-55
2023/06/08 00:09:06;;;;;;;3.33;2.00;;;;;;;22.99;49.68;101787.38;5045808;28;20041;-55
2023/06/08 00:11:32;;;;;;;2.33;2.10;;;;;;;22.98;50.23;101787.53;5051520;28;20108;-55
2023/06/08 00:13:58;;;;;;;2.15;2.03;;;;;;;22.98;50.07;101785.69;5046174;28;20123;-55
2023/06/08 00:16:24;;;;;;;2.28;1.90;;;;;;;22.97;49.82;101786.69;5046267;28;20037;-56
2023/06/08 00:18:54;;;;;;;2.35;1.85;;;;;;;22.98;49.75;101787.53;5046575;28;20065;-55
2023/06/08 00:21:20;;;;;;;2.63;2.13;;;;;;;22.98;49.82;101787.53;5049788;28;20052;-56
2023/06/08 00:23:45;;;;;;;2.38;2.17;;;;;;;22.97;49.81;101786.69;5046421;28;20067;-56
2023/06/08 00:26:11;;;;;;;2.40;1.70;;;;;;;22.97;49.71;101794.84;5050363;28;20086;-55
2023/06/08 00:28:36;;;;;;;2.13;1.80;;;;;;;22.96;50.16;101784.13;5046852;28;20037;-55
2023/06/08 00:31:02;;;;;;;3.15;2.20;;;;;;;22.96;50.31;101786.84;5046260;28;20073;-55
2023/06/08 00:33:27;;;;;;;2.22;2.03;;;;;;;22.95;50.16;101786.00;5045884;28;20034;-55
2023/06/08 00:35:54;;;;;;;2.55;1.83;;;;;;;22.95;49.80;101777.84;5045972;28;20124;-55
2023/06/08 00:38:20;;;;;;;2.33;1.83;;;;;;;22.96;49.66;101781.41;5047748;28;20025;-56
2023/06/08 00:40:45;;;;;;;3.45;2.47;;;;;;;22.95;50.10;101779.72;5044842;28;20152;-56
2023/06/08 00:43:10;;;;;;;2.58;1.90;;;;;;;22.95;50.07;101772.41;5045863;28;20116;-55
2023/06/08 00:45:36;;;;;;;2.30;2.10;;;;;;;22.93;49.98;101771.72;5051467;28;20309;-55
2023/06/08 00:48:02;;;;;;;2.45;2.05;;;;;;;22.93;50.10;101777.16;5045833;28;20032;-56
2023/06/08 00:50:31;;;;;;;2.80;1.80;;;;;;;22.92;50.10;101775.44;5045422;28;20050;-55
2023/06/08 00:52:56;;;;;;;2.03;1.83;;;;;;;22.92;50.09;101764.56;5041298;28;20033;-55
2023/06/08 00:55:24;;;;;;;3.35;2.45;;;;;;;22.91;49.90;101762.88;5046886;28;20094;-55
2023/06/08 00:57:51;;;;;;;2.55;1.95;;;;;;;22.90;50.24;101766.59;5046034;28;20037;-55
2023/06/08 01:00:17;;;;;;;2.72;1.92;;;;;;;22.90;49.64;101772.03;5044803;28;20044;-55
2023/06/08 01:02:43;;;;;;;2.05;1.85;;;;;;;22.91;50.12;101764.75;5046265;28;20063;-55
2023/06/08 01:05:09;;;;;;;2.30;2.10;;;;;;;22.90;49.76;101761.16;5042781;28;20064;-55
2023/06/08 01:07:49;;;;;;;3.33;2.17;;;;;;;22.90;50.16;101755.72;5050755;28;20036;-56
2023/06/08 01:10:37;;;;;;;2.72;2.05;;;;;;;22.92;50.14;101759.13;5046166;28;20100;-56
2023/06/08 01:13:25;;;;;;;1.83;1.73;;;;;;;22.90;49.99;101757.59;5045855;28;20025;-55
2023/06/08 01:15:58;;;;;;;2.75;2.00;;;;;;;22.90;49.66;101758.44;5048036;28;20026;-55
2023/06/08 01:18:27;;;;;;;2.70;2.45;;;;;;;22.89;49.94;101764.06;5045752;28;20032;-55
2023/06/08 01:21:11;;;;;;;2.88;2.00;;;;;;;22.89;49.67;101761.34;5045378;28;20112;-55
2023/06/08 01:24:02;;;;;;;2.17;1.98;;;;;;;22.89;49.94;101753.19;5047764;28;20033;-55
2023/06/08 01:26:28;;;;;;;2.10;1.90;;;;;;;22.89;49.71;101764.91;5047513;28;20037;-55
2023/06/08 01:28:55;;;;;;;2.33;2.10;;;;;;;22.88;49.89;101763.19;5049413;28;20040;-55
2023/06/08 01:31:21;;;;;;;3.80;2.58;;;;;;;22.87;50.07;101760.66;5049575;28;20021;-56
2023/06/08 01:33:46;;;;;;;1.80;1.70;;;;;;;22.87;49.99;101756.06;5048831;28;20119;-55
2023/06/08 01:36:26;;;;;;;2.50;2.30;;;;;;;22.87;50.20;101753.34;5049230;28;20451;-55
2023/06/08 01:38:59;;;;;;;2.10;1.88;;;;;;;22.86;50.01;101759.78;5049442;28;20479;-56
2023/06/08 01:41:27;;;;;;;2.30;2.10;;;;;;;22.85;49.51;101758.09;5050971;28;20133;-56
2023/06/08 01:43:57;;;;;;;2.35;2.15;;;;;;;22.85;50.00;101747.22;5048326;28;20115;-55
2023/06/08 01:46:24;;;;;;;3.60;2.30;;;;;;;22.84;49.95;101749.06;5048367;28;20025;-56
2023/06/08 01:48:51;;;;;;;2.20;2.00;;;;;;;22.85;49.94;101749.94;5047197;28;20393;-55
2023/06/08 01:51:19;;;;;;;2.60;1.92;;;;;;;22.84;49.71;101748.22;5049227;28;20041;-55
2023/06/08 01:53:45;;;;;;;2.22;2.03;;;;;;;22.84;49.80;101742.78;5048529;28;20060;-56
2023/06/08 01:56:10;;;;;;;2.50;2.30;;;;;;;22.84;49.59;101745.50;5048731;28;20041;-55
2023/06/08 01:58:35;;;;;;;2.38;2.13;;;;;;;22.83;49.59;101743.81;5048703;28;20042;-55
2023/06/08 02:01:01;;;;;;;2.33;2.05;;;;;;;22.83;49.98;101732.94;5054370;28;20033;-55
2023/06/08 02:03:26;;;;;;;2.72;2.33;;;;;;;22.83;49.90;101738.38;5053209;28;20028;-55
2023/06/08 02:05:51;;;;;;;4.45;2.33;;;;;;;22.83;49.48;101743.81;5048470;28;20081;-55
2023/06/08 02:08:17;;;;;;;2.55;2.00;;;;;;;22.82;49.95;101742.94;5048980;28;20029;-55
2023/06/08 02:10:42;;;;;;;2.33;2.13;;;;;;;22.82;49.87;101736.66;5049119;28;20097;-56
2023/06/08 02:13:08;;;;;;;2.05;1.92;;;;;;;22.82;49.53;101737.50;5047923;28;20868;-55
2023/06/08 02:15:33;;;;;;;2.35;2.15;;;;;;;22.81;49.49;101735.81;5048065;28;20457;-56
2023/06/08 02:17:58;;;;;;;2.17;1.98;;;;;;;22.81;49.44;101734.97;5048322;28;20098;-56
2023/06/08 02:20:24;;;;;;;2.47;2.10;;;;;;;22.80;49.91;101733.25;5047266;28;20032;-55
2023/06/08 02:22:49;;;;;;;2.72;2.25;;;;;;;22.81;49.48;101738.53;5044142;28;20032;-55
2023/06/08 02:25:15;;;;;;;2.30;2.10;;;;;;;22.79;49.45;101737.84;5049737;28;20051;-55
2023/06/08 02:27:43;;;;;;;2.10;1.90;;;;;;;22.79;49.70;101736.97;5048062;28;20024;-55
2023/06/08 02:30:12;;;;;;;3.47;2.20;;;;;;;22.79;49.61;101737.84;5047085;28;20061;-55
2023/06/08 02:32:41;;;;;;;2.63;2.22;;;;;;;22.78;49.86;101744.25;5047379;28;20029;-55
2023/06/08 02:35:07;;;;;;;2.08;1.98;;;;;;;22.78;49.28;101746.13;5046667;28;20029;-55
2023/06/08 02:37:34;;;;;;;2.95;2.05;;;;;;;22.79;49.81;101742.41;5048222;28;20051;-55
2023/06/08 02:40:00;;;;;;;3.00;2.65;;;;;;;22.77;49.75;101745.28;5048094;28;20032;-56
2023/06/08 02:42:26;;;;;;;3.47;2.25;;;;;;;22.78;49.35;101749.69;5048239;28;20029;-55
2023/06/08 02:44:51;;;;;;;3.42;2.35;;;;;;;22.78;49.38;101746.13;5048611;28;20032;-56
2023/06/08 02:47:17;;;;;;;2.78;2.03;;;;;;;22.77;49.29;101741.69;5047855;28;20365;-55
2023/06/08 02:49:43;;;;;;;2.63;2.42;;;;;;;22.77;49.69;101745.28;5054615;28;20055;-56
2023/06/08 02:52:08;;;;;;;2.67;2.20;;;;;;;22.76;49.68;101743.56;5048210;28;20031;-56
2023/06/08 02:54:34;;;;;;;2.22;2.03;;;;;;;22.77;49.39;101736.28;5048122;28;20032;-55
2023/06/08 02:57:00;;;;;;;2.55;2.35;;;;;;;22.76;49.38;101748.16;5046735;28;20102;-55
2023/06/08 02:59:27;;;;;;;3.88;2.30;;;;;;;22.76;49.36;101737.28;5048963;28;20037;-55
2023/06/08 03:01:53;;;;;;;2.28;2.08;;;;;;;22.75;49.20;101741.88;5047940;28;20351;-55
2023/06/08 03:04:25;;;;;;;2.38;2.15;;;;;;;22.75;49.24;101746.44;5048238;28;20036;-56
2023/06/08 03:06:53;;;;;;;1.95;1.80;;;;;;;22.76;49.08;101742.72;5047258;28;20131;-55
2023/06/08 03:09:24;;;;;;;2.50;2.28;;;;;;;22.73;49.19;101738.47;5047122;28;20051;-56
2023/06/08 03:11:49;;;;;;;2.45;2.25;;;;;;;22.75;49.14;101735.56;5047505;28;20029;-55
2023/06/08 03:14:16;;;;;;;3.92;2.33;;;;;;;22.74;49.59;101737.44;5046159;28;20037;-55
2023/06/08 03:16:44;;;;;;;3.92;2.30;;;;;;;22.73;49.56;101730.34;5046487;28;20035;-55
2023/06/08 03:19:10;;;;;;;2.40;2.20;;;;;;;22.74;49.53;101728.47;5047948;28;20029;-55
2023/06/08 03:21:36;;;;;;;2.25;2.10;;;;;;;22.73;49.30;101726.75;5052471;28;20391;-56
2023/06/08 03:24:03;;;;;;;3.75;2.20;;;;;;;22.72;49.01;101730.47;5047348;28;20041;-56
2023/06/08 03:26:28;;;;;;;1.83;1.73;;;;;;;22.73;49.49;101726.75;5050318;28;20443;-55
2023/06/08 03:28:53;;;;;;;3.15;2.33;;;;;;;22.72;49.17;101731.31;5046962;28;20061;-55
2023/06/08 03:31:20;;;;;;;2.33;2.08;;;;;;;22.72;49.25;101735.91;5047583;28;20065;-55
2023/06/08 03:33:47;;;;;;;2.58;2.38;;;;;;;22.71;49.25;101737.75;5048721;28;20063;-55
2023/06/08 03:36:12;;;;;;;2.42;2.00;;;;;;;22.71;49.01;101731.47;5047686;28;20071;-55
2023/06/08 03:38:38;;;;;;;3.10;2.20;;;;;;;22.70;49.45;101738.78;5046833;28;20025;-55
2023/06/08 03:41:03;;;;;;;2.13;1.92;;;;;;;22.71;48.99;101740.47;5047130;28;20029;-55
2023/06/08 03:43:29;;;;;;;2.60;2.25;;;;;;;22.70;48.93;101737.94;5046107;28;20068;-55
2023/06/08 03:45:54;;;;;;;2.80;2.08;;;;;;;22.70;49.20;101748.78;5045438;28;20029;-56
2023/06/08 03:48:19;;;;;;;4.28;2.30;;;;;;;22.70;49.24;101737.94;5046671;28;20091;-56
2023/06/08 03:50:45;;;;;;;3.13;2.38;;;;;;;22.69;49.33;101738.94;5046722;28;20064;-55
2023/06/08 03:53:11;;;;;;;2.63;2.28;;;;;;;22.69;49.12;101738.94;5040780;28;20024;-55
2023/06/08 03:55:36;;;;;;;4.55;2.80;;;;;;;22.68;49.09;101732.66;5048744;28;20364;-55
2023/06/08 03:58:02;;;;;;;2.85;2.53;;;;;;;22.69;48.87;101736.22;5050209;28;20032;-55
2023/06/08 04:00:29;;;;;;;3.50;2.53;;;;;;;22.69;49.33;101728.06;5040465;28;20152;-55
2023/06/08 04:02:55;;;;;;;2.83;2.10;;;;;;;22.67;49.08;101722.78;5045616;28;20148;-55
2023/06/08 04:05:20;;;;;;;3.08;2.35;;;;;;;22.67;48.89;101728.22;5046358;28;20116;-55
2023/06/08 04:07:47;;;;;;;3.08;2.40;;;;;;;22.67;48.96;101736.34;5046382;28;20133;-55
2023/06/08 04:10:13;;;;;;;2.50;2.22;;;;;;;22.67;49.02;101732.81;5040064;28;20037;-55
2023/06/08 04:12:38;;;;;;;2.40;2.20;;;;;;;22.65;48.86;101736.50;5045911;28;20082;-55
2023/06/08 04:15:05;;;;;;;2.83;2.53;;;;;;;22.65;48.72;101744.66;5043863;28;20040;-55
2023/06/08 04:17:30;;;;;;;2.55;2.28;;;;;;;22.65;49.05;101736.50;5045401;28;20068;-56
2023/06/08 04:19:56;;;;;;;3.85;2.53;;;;;;;22.65;48.99;101733.78;5044769;28;20435;-55
2023/06/08 04:22:22;;;;;;;3.15;2.50;;;;;;;22.64;48.94;101734.81;5055733;28;20041;-55
2023/06/08 04:24:48;;;;;;;2.13;1.98;;;;;;;22.64;48.62;101732.09;5044758;28;20356;-55
2023/06/08 04:27:13;;;;;;;3.38;2.25;;;;;;;22.64;48.68;101740.25;5045270;28;20039;-55
2023/06/08 04:29:38;;;;;;;2.63;2.33;;;;;;;22.64;48.85;101734.81;5048772;28;20055;-55
2023/06/08 04:32:04;;;;;;;3.50;2.28;;;;;;;22.63;48.57;101724.97;5046186;28;20025;-56
2023/06/08 04:34:31;;;;;;;3.65;2.55;;;;;;;22.62;48.55;101725.13;5046590;28;20036;-55
2023/06/08 04:36:57;;;;;;;3.35;2.50;;;;;;;22.64;48.61;101720.41;5045569;28;20374;-55
2023/06/08 04:39:22;;;;;;;2.72;2.22;;;;;;;22.64;48.84;101726.69;5044903;28;20032;-55
2023/06/08 04:41:49;;;;;;;4.97;2.50;;;;;;;22.63;48.94;101722.25;5046331;28;20025;-55
2023/06/08 04:44:18;;;;;;;2.72;2.50;;;;;;;22.62;48.40;101730.56;5046547;28;20639;-55
2023/06/08 04:46:44;;;;;;;3.08;2.65;;;;;;;22.61;48.52;101724.25;5045749;28;20037;-55
2023/06/08 04:49:10;;;;;;;2.72;2.13;;;;;;;22.62;48.94;101727.84;5044044;28;20402;-55
2023/06/08 04:51:39;;;;;;;2.85;2.33;;;;;;;22.61;48.31;101726.97;5048335;28;20048;-55
2023/06/08 04:54:05;;;;;;;2.80;2.30;;;;;;;22.61;48.70;101724.25;5046497;28;20028;-55
2023/06/08 04:56:33;;;;;;;2.67;2.47;;;;;;;22.61;48.80;101723.41;5043888;28;20035;-55
2023/06/08 04:59:02;;;;;;;3.08;2.40;;;;;;;22.60;48.57;101728.00;5047792;28;20554;-55
2023/06/08 05:01:28;;;;;;;2.88;2.55;;;;;;;22.60;48.39;101722.56;5048752;28;20033;-55
2023/06/08 05:03:53;;;;;;;3.97;2.20;;;;;;;22.59;48.66;101729.00;5050649;28;20049;-55
2023/06/08 05:06:19;;;;;;;2.50;2.10;;;;;;;22.60;48.32;101725.28;5047870;28;20438;-55
2023/06/08 05:08:45;;;;;;;2.30;2.10;;;;;;;22.60;48.43;101728.00;5049431;28;20480;-55
2023/06/08 05:11:10;;;;;;;3.30;2.50;;;;;;;22.59;48.64;101715.41;5046819;28;20037;-55
2023/06/08 05:13:35;;;;;;;3.47;2.35;;;;;;;22.59;48.74;101717.28;5052227;28;20495;-55
2023/06/08 05:16:02;;;;;;;2.30;2.10;;;;;;;22.58;48.30;101716.44;5049244;28;20052;-55
2023/06/08 05:18:28;;;;;;;4.88;2.13;;;;;;;22.58;48.55;101730.03;5049337;28;20025;-55
2023/06/08 05:20:54;;;;;;;1.95;1.83;;;;;;;22.57;48.54;101714.72;5050004;28;20029;-55
2023/06/08 05:23:19;;;;;;;2.20;2.00;;;;;;;22.58;48.66;101719.16;5056140;28;20033;-55
2023/06/08 05:25:45;;;;;;;2.53;2.00;;;;;;;22.57;48.77;101725.59;5053339;28;20024;-55
2023/06/08 05:28:11;;;;;;;3.35;2.45;;;;;;;22.56;48.19;101729.31;5048629;28;20043;-55
2023/06/08 05:30:36;;;;;;;3.45;1.95;;;;;;;22.57;48.82;101722.88;5049046;28;20154;-55
2023/06/08 05:33:02;;;;;;;2.00;1.90;;;;;;;22.56;48.24;101713.03;5049533;28;20098;-55
2023/06/08 05:35:27;;;;;;;2.60;2.40;;;;;;;22.56;48.23;101725.72;5048634;28;20036;-55
2023/06/08 05:37:53;;;;;;;2.80;2.47;;;;;;;22.55;48.51;101714.03;5049071;28;20033;-55
2023/06/08 05:40:19;;;;;;;2.60;2.25;;;;;;;22.56;48.64;101709.44;5049061;28;20124;-55
2023/06/08 05:42:44;;;;;;;2.22;2.08;;;;;;;22.55;48.49;101708.59;5047894;28;20064;-55
2023/06/08 05:45:11;;;;;;;3.33;2.20;;;;;;;22.55;48.58;101708.59;5048673;28;20104;-55
2023/06/08 05:47:37;;;;;;;2.60;2.30;;;;;;;22.55;48.58;101716.75;5049286;28;20107;-54
2023/06/08 05:50:02;;;;;;;2.72;2.20;;;;;;;22.55;48.40;101707.75;5047576;28;20088;-55
2023/06/08 05:52:27;;;;;;;2.28;2.08;;;;;;;22.53;48.42;101705.19;5048554;28;20041;-55
2023/06/08 05:54:53;;;;;;;3.33;1.85;;;;;;;22.55;48.63;101705.88;5048936;28;20037;-55
2023/06/08 05:57:19;;;;;;;2.28;2.08;;;;;;;22.54;48.50;101709.63;5049444;28;20493;-55
2023/06/08 05:59:44;;;;;;;2.30;2.13;;;;;;;22.54;48.48;101712.34;5045505;28;20037;-55
2023/06/08 06:02:10;;;;;;;3.00;2.10;;;;;;;22.54;48.29;101708.75;5048792;28;20026;-55
2023/06/08 06:04:36;;;;;;;2.80;2.30;;;;;;;22.53;48.57;101702.47;5049038;28;20034;-55
2023/06/08 06:07:01;;;;;;;2.58;2.30;;;;;;;22.53;48.19;101699.75;5049159;28;20030;-55
2023/06/08 06:09:26;;;;;;;3.08;2.22;;;;;;;22.53;48.71;101701.63;5050642;28;20040;-56
2023/06/08 06:11:52;;;;;;;3.85;2.10;;;;;;;22.53;48.50;101707.91;5048587;28;20088;-56
2023/06/08 06:14:17;;;;;;;2.15;2.00;;;;;;;22.53;48.42;101699.75;5048595;28;20031;-56
2023/06/08 06:16:43;;;;;;;2.47;2.05;;;;;;;22.51;48.24;101707.22;5049068;28;20044;-56
2023/06/08 06:19:08;;;;;;;2.80;2.30;;;;;;;22.53;48.46;101704.34;5047630;28;20024;-56
2023/06/08 06:21:33;;;;;;;2.20;2.00;;;;;;;22.52;48.25;101703.47;5047689;28;20043;-56
2023/06/08 06:23:59;;;;;;;2.67;1.95;;;;;;;22.53;48.49;101709.78;5054274;28;20033;-56
2023/06/08 06:26:25;;;;;;;3.35;2.20;;;;;;;22.52;48.60;101722.47;5050498;28;20032;-56
2023/06/08 06:28:50;;;;;;;3.15;2.40;;;;;;;22.51;48.63;101712.66;5046322;28;20052;-56
2023/06/08 06:31:16;;;;;;;2.10;1.90;;;;;;;22.51;48.30;101707.22;5048300;28;20025;-56
2023/06/08 06:33:41;;;;;;;3.47;2.00;;;;;;;22.52;48.44;101708.91;5048342;28;20025;-56
2023/06/08 06:36:07;;;;;;;3.65;2.17;;;;;;;22.52;48.61;101713.50;5047237;28;20025;-56
2023/06/08 06:38:32;;;;;;;2.42;2.03;;;;;;;22.51;48.62;101718.06;5047241;28;20039;-56
2023/06/08 06:40:58;;;;;;;2.08;1.90;;;;;;;22.51;48.75;101704.50;5042031;28;20104;-56
2023/06/08 06:43:24;;;;;;;2.60;2.40;;;;;;;22.52;48.68;101710.78;5049807;28;20060;-56
2023/06/08 06:45:50;;;;;;;2.58;2.10;;;;;;;22.51;48.79;101707.22;5054515;28;20382;-56
2023/06/08 06:48:20;;;;;;;3.05;2.05;;;;;;;22.51;48.68;101717.22;5047301;28;20060;-56
2023/06/08 06:50:46;;;;;;;2.83;2.22;;;;;;;22.52;48.64;101710.78;5047316;28;20448;-56
2023/06/08 06:53:11;;;;;;;2.45;2.17;;;;;;;22.50;48.33;101705.50;5047744;28;20038;-56
2023/06/08 06:55:38;;;;;;;2.55;2.20;;;;;;;22.51;48.48;101707.22;5046665;28;20033;-56
2023/06/08 06:58:03;;;;;;;2.92;2.38;;;;;;;22.50;48.42;101721.78;5046277;28;20483;-56
2023/06/08 07:00:32;;;;;;;2.90;2.20;;;;;;;22.51;48.64;101720.78;5050788;28;20029;-56
2023/06/08 07:02:58;;;;;;;3.60;2.10;;;;;;;22.50;48.57;101729.06;5047147;28;20464;-56
2023/06/08 07:05:23;;;;;;;2.70;2.10;;;;;;;22.50;48.68;101719.06;5040671;28;20041;-56
2023/06/08 07:07:49;;;;;;;2.13;1.92;;;;;;;22.51;48.47;101722.66;5047250;28;20033;-56
2023/06/08 07:10:14;;;;;;;2.45;2.03;;;;;;;22.50;48.67;101721.78;5047479;28;20071;-56
2023/06/08 07:12:40;;;;;;;2.78;2.38;;;;;;;22.50;48.40;101721.78;5048031;28;20552;-56
2023/06/08 07:15:05;;;;;;;2.20;2.00;;;;;;;22.50;48.68;101727.22;5046764;28;20028;-56
2023/06/08 07:17:31;;;;;;;2.65;2.45;;;;;;;22.50;48.33;101731.78;5047538;28;20055;-56
2023/06/08 07:19:58;;;;;;;2.35;2.17;;;;;;;22.50;48.13;101735.34;5049597;28;20364;-56
2023/06/08 07:22:23;;;;;;;2.35;1.88;;;;;;;22.51;48.43;101739.78;5049590;28;20033;-56
2023/06/08 07:24:49;;;;;;;3.85;2.50;;;;;;;22.50;48.51;101735.34;5049016;28;20043;-56
2023/06/08 07:27:14;;;;;;;2.08;1.88;;;;;;;22.51;48.83;101725.38;5047881;28;20040;-56
2023/06/08 07:29:40;;;;;;;2.30;1.85;;;;;;;22.50;48.37;101729.91;5046810;28;20115;-56
2023/06/08 07:32:06;;;;;;;3.53;2.30;;;;;;;22.50;48.81;101727.22;5047168;28;20033;-56
2023/06/08 07:34:32;;;;;;;2.10;1.90;;;;;;;22.50;48.86;101719.06;5046412;28;20101;-56
2023/06/08 07:36:58;;;;;;;2.10;1.90;;;;;;;22.50;48.75;101727.22;5045344;28;20033;-56
2023/06/08 07:39:23;;;;;;;2.75;2.10;;;;;;;22.51;48.85;101723.50;5046388;28;20383;-56
2023/06/08 07:41:48;;;;;;;2.13;1.92;;;;;;;22.51;48.43;101718.06;5053261;28;20030;-56
2023/06/08 07:44:14;;;;;;;4.15;2.20;;;;;;;22.49;48.84;101720.09;5046368;28;20030;-56
2023/06/08 07:46:39;;;;;;;2.28;2.10;;;;;;;22.50;48.45;101710.91;5047086;28;20112;-56
2023/06/08 07:49:05;;;;;;;2.40;1.92;;;;;;;22.51;48.45;101706.38;5046400;28;20022;-56
2023/06/08 07:51:31;;;;;;;1.88;1.77;;;;;;;22.50;48.40;101708.22;5033342;28;20045;-56
2023/06/08 07:53:56;;;;;;;1.95;1.70;;;;;;;22.51;48.77;101709.94;5047092;28;20088;-56
2023/06/08 07:56:22;;;;;;;2.33;2.00;;;;;;;22.50;48.79;101702.78;5047465;28;20040;-56
2023/06/08 07:58:48;;;;;;;2.38;2.00;;;;;;;22.50;48.69;101710.91;5046346;28;20029;-56
2023/06/08 08:01:13;;;;;;;2.15;2.00;;;;;;;22.50;48.35;101710.91;5047317;28;20098;-56
2023/06/08 08:03:39;;;;;;;3.17;1.90;;;;;;;22.50;48.44;101705.50;5046807;28;20028;-56
2023/06/08 08:06:06;;;;;;;2.60;1.92;;;;;;;22.50;48.80;101701.94;5047160;28;20032;-56
2023/06/08 08:08:31;;;;;;;2.45;2.13;;;;;;;22.51;48.56;101711.78;5046379;28;20930;-56
2023/06/08 08:10:57;;;;;;;2.20;1.83;;;;;;;22.51;48.52;101707.22;5046244;28;20059;-56
2023/06/08 08:13:22;;;;;;;2.95;2.20;;;;;;;22.51;48.31;101704.50;5046510;28;20107;-56
2023/06/08 08:15:48;;;;;;;2.13;1.95;;;;;;;22.51;48.35;101706.38;5049450;28;20111;-56
2023/06/08 08:18:13;;;;;;;2.28;2.08;;;;;;;22.51;48.63;101703.66;5045781;28;20082;-56
2023/06/08 08:20:39;;;;;;;2.80;2.17;;;;;;;22.51;48.34;101706.38;5045041;28;20028;-56
2023/06/08 08:23:05;;;;;;;2.42;1.95;;;;;;;22.50;48.44;101705.50;5050295;28;20083;-56
2023/06/08 08:25:31;;;;;;;2.03;1.80;;;;;;;22.51;48.56;101704.50;5047969;28;20033;-56
2023/06/08 08:27:57;;;;;;;2.40;2.20;;;;;;;22.52;48.58;101708.06;5045289;28;20029;-55
2023/06/08 08:30:22;;;;;;;1.98;1.67;;;;;;;22.51;48.31;101701.78;5045819;28;20116;-56
2023/06/08 08:32:48;;;;;;;2.45;2.03;;;;;;;22.51;48.57;101707.22;5048436;28;20036;-56
2023/06/08 08:35:14;;;;;;;2.30;1.90;;;;;;;22.52;48.57;101697.19;5050816;28;20048;-56
2023/06/08 08:37:42;;;;;;;2.60;1.92;;;;;;;22.51;48.70;101700.94;5049735;28;20466;-56
2023/06/08 08:40:09;;;;;;;1.90;1.80;;;;;;;22.51;48.40;101698.22;5049812;28;20032;-56
2023/06/08 08:42:41;;;;;;;2.20;2.00;;;;;;;22.50;48.89;101697.34;5050363;28;20072;-56
2023/06/08 08:45:09;;;;;;;2.60;1.85;;;;;;;22.51;48.57;101707.22;5048150;28;20029;-56
2023/06/08 08:47:35;;;;;;;2.47;2.00;;;;;;;22.52;48.50;101700.75;5050142;28;20029;-56
2023/06/08 08:50:06;;;;;;;2.20;1.80;;;;;;;22.51;49.03;101700.94;5050106;28;20099;-56
2023/06/08 08:52:37;;;;;;;2.40;1.80;;;;;;;22.52;48.86;101698.03;5050593;28;20116;-56
2023/06/08 08:55:04;;;;;;;2.78;2.50;;;;;;;22.53;48.93;101693.50;5049771;28;20311;-56
2023/06/08 08:57:31;;;;;;;2.13;1.67;;;;;;;22.52;48.86;101691.78;5052884;28;20455;-56
2023/06/08 08:59:57;;;;;;;1.98;1.88;;;;;;;22.52;48.81;101691.78;5050740;28;20040;-56
2023/06/08 09:02:23;;;;;;;2.13;1.92;;;;;;;22.52;48.46;101683.63;5051829;28;20041;-56
2023/06/08 09:04:50;;;;;;;2.08;1.98;;;;;;;22.53;48.51;101690.78;5049025;28;20064;-56
2023/06/08 09:07:20;;;;;;;2.33;2.13;;;;;;;22.52;49.03;101676.34;5049109;28;20029;-56
2023/06/08 09:10:21;;;;;;;1.75;1.65;;;;;;;22.55;49.02;101686.88;5049302;28;20033;-56
2023/06/08 09:12:49;;;;;;;1.92;1.73;;;;;;;22.55;48.38;101691.47;5048699;28;20043;-56
2023/06/08 09:15:26;;;;;;;2.33;2.10;;;;;;;22.55;48.44;101692.31;5049303;28;20040;-56
2023/06/08 09:17:53;;;;;;;2.17;1.98;;;;;;;22.54;49.09;101681.63;5049750;28;20032;-56
2023/06/08 09:20:27;;;;;;;1.88;1.73;;;;;;;22.54;48.87;101679.78;5048383;28;20064;-56
2023/06/08 09:22:53;;;;;;;2.05;1.85;;;;;;;22.56;48.43;101676.88;5052366;28;20131;-56
2023/06/08 09:25:32;;;;;;;1.70;1.60;;;;;;;22.55;48.75;101683.34;5051545;28;20466;-56
2023/06/08 09:28:14;;;;;;;2.15;1.92;;;;;;;22.58;49.03;101677.56;5049600;28;20525;-56
2023/06/08 09:30:40;;;;;;;2.72;1.92;;;;;;;22.56;48.92;101672.31;5044509;28;20482;-56
2023/06/08 09:33:23;;;;;;;2.30;2.10;;;;;;;22.57;48.79;101673.16;5050769;28;20033;-56
2023/06/08 09:36:04;;;;;;;1.95;1.85;;;;;;;22.59;49.05;101671.16;5048837;28;20045;-56
2023/06/08 09:38:31;;;;;;;2.30;2.10;;;;;;;22.58;48.91;101675.72;5044870;28;20030;-56
2023/06/08 09:41:15;;;;;;;2.13;2.00;;;;;;;22.60;48.52;101676.44;5048944;28;20029;-56
2023/06/08 09:43:43;;;;;;;1.95;1.85;;;;;;;22.58;48.43;101669.44;5047576;28;20039;-56
2023/06/08 09:46:13;;;;;;;2.25;2.08;;;;;;;22.57;48.52;101679.44;5049497;28;20044;-56
2023/06/08 09:48:40;;;;;;;2.08;1.90;;;;;;;22.58;48.69;101677.56;5049890;28;20036;-56
2023/06/08 09:51:07;;;;;;;2.53;2.13;;;;;;;22.58;48.58;101669.44;5048592;28;20131;-56
2023/06/08 09:53:33;;;;;;;2.05;1.90;;;;;;;22.59;48.72;101674.72;5038195;28;20126;-56
2023/06/08 09:56:01;;;;;;;1.98;1.83;;;;;;;22.59;49.17;101661.13;5048781;28;20029;-56
2023/06/08 09:58:29;;;;;;;1.75;1.65;;;;;;;22.61;48.77;101666.41;5047583;28;20028;-56
2023/06/08 10:01:02;;;;;;;2.95;2.13;;;;;;;22.62;48.59;101673.56;5050170;28;20540;-56
2023/06/08 10:03:37;;;;;;;3.38;2.10;;;;;;;22.62;49.24;101666.25;5048410;28;20532;-56
2023/06/08 10:06:06;;;;;;;1.83;1.73;;;;;;;22.62;49.11;101660.00;5049503;28;20025;-56
2023/06/08 10:08:32;;;;;;;2.10;1.90;;;;;;;22.63;49.04;101664.38;5053058;28;20528;-56
2023/06/08 10:10:59;;;;;;;2.75;1.90;;;;;;;22.63;49.33;101659.81;5048207;28;20125;-56
2023/06/08 10:13:27;;;;;;;2.17;1.98;;;;;;;22.64;49.23;101660.69;5047484;28;20132;-56
2023/06/08 10:15:53;;;;;;;3.05;1.80;;;;;;;22.65;48.85;101659.66;5048702;28;20028;-56
2023/06/08 10:18:19;;;;;;;2.72;2.10;;;;;;;22.66;49.27;101655.94;5047464;28;20048;-56
2023/06/08 10:20:45;;;;;;;2.63;2.13;;;;;;;22.67;48.86;101651.34;5047790;28;20037;-56
2023/06/08 10:23:12;;;;;;;2.28;2.00;;;;;;;22.66;49.04;101661.38;5050608;28;20032;-56
2023/06/08 10:25:38;;;;;;;2.95;2.20;;;;;;;22.66;48.78;101650.50;5052115;28;20474;-56
2023/06/08 10:28:08;;;;;;;2.47;2.28;;;;;;;22.67;48.97;101651.34;5045631;28;20545;-56
2023/06/08 10:30:41;;;;;;;1.80;1.70;;;;;;;22.68;49.27;101644.94;5051339;28;20056;-56
2023/06/08 10:33:08;;;;;;;2.45;1.95;;;;;;;22.69;49.15;101647.47;5049004;28;20112;-56
2023/06/08 10:35:33;;;;;;;3.00;2.08;;;;;;;22.69;49.19;101655.59;5048129;28;20383;-56
2023/06/08 10:38:08;;;;;;;2.40;2.17;;;;;;;22.70;48.88;101651.06;5048233;28;20022;-56
2023/06/08 10:40:49;;;;;;;2.42;2.05;;;;;;;22.71;48.92;101647.31;5048849;28;20536;-56
2023/06/08 10:43:15;;;;;;;2.43;2.23;;;;;;;22.71;49.08;101652.75;5049788;28;20036;-56
2023/06/08 10:45:43;;;;;;;2.47;1.95;;;;;;;22.71;49.02;101647.31;5047761;28;20279;-56
2023/06/08 10:48:14;;;;;;;3.40;2.20;;;;;;;22.70;49.33;101645.63;5047894;28;20029;-56
2023/06/08 10:50:42;;;;;;;3.83;1.90;;;;;;;22.71;49.39;101642.72;5051011;28;20049;-56
2023/06/08 10:53:08;;;;;;;2.75;2.30;;;;;;;22.71;49.37;101625.59;5045702;28;20127;-56
2023/06/08 10:55:34;;;;;;;2.25;2.08;;;;;;;22.71;49.29;101637.31;5046907;28;20189;-56
2023/06/08 10:58:14;;;;;;;2.05;1.88;;;;;;;22.73;49.30;101638.03;5047415;28;20119;-56
2023/06/08 11:00:44;;;;;;;2.60;2.22;;;;;;;22.72;49.47;101628.16;5050055;28;20091;-56
2023/06/08 11:03:12;;;;;;;2.20;2.00;;;;;;;22.73;49.34;101631.72;5052426;28;20070;-56
2023/06/08 11:05:39;;;;;;;1.92;1.83;;;;;;;22.74;49.04;101630.72;5047425;28;20029;-56
2023/06/08 11:08:08;;;;;;;2.53;2.33;;;;;;;22.74;49.45;101628.00;5047375;28;20044;-56
2023/06/08 11:10:36;;;;;;;2.38;2.20;;;;;;;22.74;49.29;101623.41;5046445;28;20028;-57
2023/06/08 11:13:06;;;;;;;2.15;2.03;;;;;;;22.75;48.92;101616.13;5046554;28;20033;-56
2023/06/08 11:15:35;;;;;;;3.63;2.20;;;;;;;22.76;49.15;101606.97;5046661;28;20033;-56
2023/06/08 11:18:00;;;;;;;2.15;1.95;;;;;;;22.77;49.09;101612.25;5047030;28;20040;-56
2023/06/08 11:20:29;;;;;;;2.75;1.80;;;;;;;22.77;49.29;101597.81;5047370;28;20475;-56
2023/06/08 11:22:55;;;;;;;2.15;1.92;;;;;;;22.78;49.41;101602.22;5048902;28;20064;-56
2023/06/08 11:25:22;;;;;;;3.13;1.90;;;;;;;22.78;49.04;101602.22;5049274;28;20053;-56